createdAt,value
2019-03-11T00:01:32.663Z,2.27
2019-03-11T00:04:01.363Z,3.95
2019-03-11T00:06:29.983Z,0.30
2019-03-11T00:08:58.611Z,1.10
2019-03-11T00:11:27.899Z,2.50
2019-03-11T00:13:56.548Z,1.05
2019-03-11T00:16:25.251Z,0.20
2019-03-11T00:18:53.892Z,2.40
2019-03-11T00:21:23.027Z,1.17
2019-03-11T00:23:51.739Z,3.40
2019-03-11T00:26:20.397Z,1.83
2019-03-11T00:28:49.015Z,1.13
2019-03-11T00:31:17.643Z,0.10
2019-03-11T00:33:46.279Z,0.77
2019-03-11T00:36:14.907Z,3.07
2019-03-11T00:38:43.535Z,1.35
2019-03-11T00:41:12.237Z,3.27
2019-03-11T00:43:40.791Z,0.40
2019-03-11T00:46:09.420Z,1.20
2019-03-11T00:48:38.668Z,0.30
2019-03-11T00:51:07.371Z,0.40
2019-03-11T00:53:36.091Z,0.20
2019-03-11T00:56:04.707Z,0.83
2019-03-11T00:58:33.415Z,1.95
2019-03-11T01:01:02.028Z,1.00
2019-03-11T01:03:30.649Z,0.63
2019-03-11T01:05:59.333Z,0.40
2019-03-11T01:08:29.108Z,0.53
2019-03-11T01:10:57.779Z,0.83
2019-03-11T01:13:26.394Z,0.40
2019-03-11T01:15:55.040Z,1.02
2019-03-11T01:18:23.675Z,0.63
2019-03-11T01:20:52.283Z,1.60
2019-03-11T01:23:21.603Z,0.20
2019-03-11T01:25:50.253Z,0.97
2019-03-11T01:28:18.848Z,0.95
2019-03-11T01:30:47.995Z,0.98
2019-03-11T01:33:16.619Z,0.60
2019-03-11T01:35:45.236Z,1.80
2019-03-11T01:38:14.335Z,0.90
2019-03-11T01:40:42.970Z,0.25
2019-03-11T01:43:11.579Z,0.40
2019-03-11T01:45:40.216Z,0.40
2019-03-11T01:48:08.967Z,4.97
2019-03-11T01:50:37.591Z,0.80
2019-03-11T01:53:06.318Z,0.27
2019-03-11T01:55:34.951Z,1.22
2019-03-11T01:58:03.568Z,3.10
2019-03-11T02:00:32.211Z,0.37
2019-03-11T02:03:00.819Z,0.25
2019-03-11T02:05:29.439Z,2.20
2019-03-11T02:07:58.074Z,0.30
2019-03-11T02:10:26.696Z,2.53
2019-03-11T02:12:55.733Z,0.72
2019-03-11T02:15:25.443Z,0.62
2019-03-11T02:17:54.051Z,0.20
2019-03-11T02:20:23.636Z,4.63
2019-03-11T02:22:52.355Z,0.50
2019-03-11T02:25:20.979Z,1.22
2019-03-11T02:27:49.595Z,1.22
2019-03-11T02:30:18.427Z,0.30
2019-03-11T02:32:47.036Z,1.37
2019-03-11T02:35:24.874Z,2.57
2019-03-11T02:37:53.529Z,1.83
2019-03-11T02:40:22.219Z,3.22
2019-03-11T02:42:50.874Z,2.95
2019-03-11T02:45:19.483Z,5.10
2019-03-11T02:47:48.204Z,2.37
2019-03-11T02:50:16.834Z,2.37
2019-03-11T02:52:45.480Z,4.23
2019-03-11T02:55:14.105Z,1.27
2019-03-11T02:57:42.756Z,0.37
2019-03-11T03:00:13.311Z,0.23
2019-03-11T03:03:01.231Z,1.37
2019-03-11T03:05:51.524Z,1.20
2019-03-11T03:08:20.232Z,1.30
2019-03-11T03:10:48.873Z,1.53
2019-03-11T03:13:17.516Z,0.50
2019-03-11T03:15:46.186Z,1.22
2019-03-11T03:18:14.876Z,1.65
2019-03-11T03:20:43.510Z,1.17
2019-03-11T03:23:12.140Z,1.30
2019-03-11T03:25:40.797Z,1.00
2019-03-11T03:28:09.501Z,1.57
2019-03-11T03:30:39.393Z,0.30
2019-03-11T03:33:08.028Z,0.27
2019-03-11T03:35:36.651Z,0.42
2019-03-11T03:38:05.272Z,0.55
2019-03-11T03:40:33.899Z,1.60
2019-03-11T03:43:02.619Z,0.87
2019-03-11T03:45:32.958Z,0.88
2019-03-11T03:48:01.648Z,4.12
2019-03-11T03:50:33.063Z,0.70
2019-03-11T03:53:01.700Z,0.10
2019-03-11T03:55:30.351Z,0.17
2019-03-11T03:57:58.967Z,0.93
2019-03-11T04:00:27.606Z,2.05
2019-03-11T04:02:56.229Z,0.60
2019-03-11T04:05:24.928Z,1.63
2019-03-11T04:07:53.504Z,0.20
2019-03-11T04:10:22.218Z,0.50
2019-03-11T04:12:50.848Z,0.57
2019-03-11T04:15:19.669Z,3.50
2019-03-11T04:17:48.375Z,0.10
2019-03-11T04:20:17.624Z,0.70
2019-03-11T04:22:46.343Z,1.30
2019-03-11T04:25:15.218Z,1.22
2019-03-11T04:27:44.801Z,1.22
2019-03-11T04:30:16.155Z,0.47
2019-03-11T04:32:44.767Z,0.47
2019-03-11T04:35:13.381Z,0.88
2019-03-11T04:37:42.103Z,0.57
2019-03-11T04:40:11.191Z,0.53
2019-03-11T04:42:39.807Z,0.85
2019-03-11T04:45:08.879Z,0.65
2019-03-11T04:47:37.499Z,1.33
2019-03-11T04:50:06.719Z,0.73
2019-03-11T04:52:35.442Z,0.40
2019-03-11T04:55:04.435Z,0.98
2019-03-11T04:57:39.503Z,0.10
2019-03-11T05:00:08.315Z,0.72
2019-03-11T05:02:38.011Z,1.50
2019-03-11T05:05:06.654Z,0.30
2019-03-11T05:07:35.355Z,0.80
2019-03-11T05:10:04.311Z,0.55
2019-03-11T05:12:32.927Z,7.20
2019-03-11T05:15:01.615Z,0.28
2019-03-11T05:17:30.235Z,0.37
2019-03-11T05:19:58.975Z,2.90
2019-03-11T05:22:27.611Z,1.20
2019-03-11T05:24:56.237Z,4.00
2019-03-11T05:27:26.047Z,1.63
2019-03-11T05:29:54.657Z,1.82
2019-03-11T05:32:24.104Z,4.65
2019-03-11T05:34:52.740Z,1.50
2019-03-11T05:37:21.432Z,0.15
2019-03-11T05:39:50.051Z,1.33
2019-03-11T05:42:19.179Z,2.05
2019-03-11T05:44:47.801Z,1.73
2019-03-11T05:47:16.429Z,0.30
2019-03-11T05:49:45.051Z,0.80
2019-03-11T05:52:14.199Z,0.88
2019-03-11T05:54:42.832Z,5.12
2019-03-11T05:57:11.451Z,5.20
2019-03-11T05:59:40.107Z,3.30
2019-03-11T06:02:08.803Z,5.10
2019-03-11T06:04:37.429Z,4.60
2019-03-11T06:07:06.073Z,2.75
2019-03-11T06:09:34.697Z,0.30
2019-03-11T06:12:03.320Z,1.67
2019-03-11T06:14:32.626Z,4.30
2019-03-11T06:17:01.618Z,4.67
2019-03-11T06:19:32.023Z,3.10
2019-03-11T06:22:31.807Z,4.22
2019-03-11T06:25:00.508Z,7.23
2019-03-11T06:27:30.115Z,3.80
2019-03-11T06:29:58.759Z,0.73
2019-03-11T06:32:27.363Z,4.43
2019-03-11T06:34:55.987Z,3.30
2019-03-11T06:37:24.619Z,3.50
2019-03-11T06:39:53.271Z,5.10
2019-03-11T06:42:21.905Z,6.67
2019-03-11T06:44:50.533Z,8.90
2019-03-11T06:47:19.732Z,10.08
2019-03-11T06:49:48.359Z,12.23
2019-03-11T06:52:16.993Z,11.30
2019-03-11T06:54:45.622Z,10.70
2019-03-11T06:57:14.249Z,10.57
2019-03-11T06:59:42.879Z,10.20
2019-03-11T07:02:11.495Z,11.85
2019-03-11T07:04:40.127Z,18.20
2019-03-11T07:07:08.751Z,11.30
2019-03-11T07:09:37.371Z,15.37
2019-03-11T07:12:06.104Z,14.93
2019-03-11T07:14:34.759Z,12.98
2019-03-11T07:17:03.528Z,15.28
2019-03-11T07:19:32.175Z,14.40
2019-03-11T07:22:00.800Z,13.60
2019-03-11T07:24:29.473Z,13.90
2019-03-11T07:26:58.121Z,10.23
2019-03-11T07:29:26.742Z,14.40
2019-03-11T07:31:55.640Z,13.43
2019-03-11T07:34:25.348Z,12.33
2019-03-11T07:36:55.053Z,14.03
2019-03-11T07:39:23.781Z,11.70
2019-03-11T07:41:52.411Z,16.32
2019-03-11T07:44:21.039Z,13.30
2019-03-11T07:46:49.668Z,11.90
2019-03-11T07:49:18.304Z,14.60
2019-03-11T07:51:46.983Z,16.47
2019-03-11T07:54:15.607Z,13.63
2019-03-11T07:56:44.272Z,11.03
2019-03-11T07:59:12.907Z,10.38
2019-03-11T08:01:41.615Z,8.73
2019-03-11T08:04:10.235Z,12.78
2019-03-11T08:06:38.885Z,10.73
2019-03-11T08:09:07.655Z,12.03
2019-03-11T08:11:37.256Z,9.40
2019-03-11T08:14:05.859Z,7.58
2019-03-11T08:16:34.895Z,14.25
2019-03-11T08:19:03.542Z,8.90
2019-03-11T08:21:32.258Z,9.87
2019-03-11T08:24:00.888Z,10.35
2019-03-11T08:26:29.671Z,7.43
2019-03-11T08:28:58.315Z,6.72
2019-03-11T08:31:26.928Z,6.20
2019-03-11T08:33:55.565Z,4.58
2019-03-11T08:36:24.487Z,3.57
2019-03-11T08:38:53.103Z,2.63
2019-03-11T08:41:21.764Z,4.15
2019-03-11T08:43:50.391Z,4.83
2019-03-11T08:46:19.003Z,7.63
2019-03-11T08:48:47.718Z,5.53
2019-03-11T08:51:16.345Z,4.80
2019-03-11T08:53:44.969Z,2.20
2019-03-11T08:56:13.615Z,3.22
2019-03-11T08:58:42.266Z,7.17
2019-03-11T09:01:10.883Z,7.87
2019-03-11T09:03:39.507Z,6.50
2019-03-11T09:06:08.207Z,7.17
2019-03-11T09:08:36.858Z,4.80
2019-03-11T09:11:05.619Z,6.72
2019-03-11T09:13:34.239Z,3.55
2019-03-11T09:16:02.879Z,6.00
2019-03-11T09:18:32.233Z,3.58
2019-03-11T09:21:00.859Z,2.90
2019-03-11T09:23:29.491Z,4.93
2019-03-11T09:25:58.132Z,3.03
2019-03-11T09:28:26.905Z,5.47
2019-03-11T09:30:55.776Z,7.60
2019-03-11T09:33:24.570Z,2.33
2019-03-11T09:35:53.175Z,3.87
2019-03-11T09:38:22.499Z,5.28
2019-03-11T09:40:51.171Z,6.37
2019-03-11T09:43:19.885Z,0.43
2019-03-11T09:45:49.172Z,5.10
2019-03-11T09:48:17.812Z,8.45
2019-03-11T09:50:46.495Z,4.23
2019-03-11T09:53:15.126Z,7.17
2019-03-11T09:55:43.837Z,1.20
2019-03-11T09:58:12.444Z,2.77
2019-03-11T10:00:41.774Z,2.60
2019-03-11T10:03:10.493Z,5.05
2019-03-11T10:05:39.115Z,6.92
2019-03-11T10:08:07.817Z,6.23
2019-03-11T10:10:36.456Z,5.63
2019-03-11T10:13:05.108Z,3.20
2019-03-11T10:15:33.760Z,3.00
2019-03-11T10:18:02.382Z,4.30
2019-03-11T10:20:30.996Z,6.37
2019-03-11T10:22:59.651Z,3.70
2019-03-11T10:25:28.259Z,2.97
2019-03-11T10:27:56.878Z,3.77
2019-03-11T10:30:25.827Z,3.12
2019-03-11T10:32:54.450Z,4.53
2019-03-11T10:35:32.372Z,4.45
2019-03-11T10:37:53.431Z,3.33
2019-03-11T10:40:23.131Z,5.80
2019-03-11T10:42:51.761Z,1.37
2019-03-11T10:45:30.389Z,3.08
2019-03-11T10:47:50.687Z,2.27
2019-03-11T10:50:19.303Z,5.93
2019-03-11T10:52:48.137Z,4.33
2019-03-11T10:55:16.779Z,8.10
2019-03-11T10:57:45.403Z,5.13
2019-03-11T11:00:15.175Z,2.08
2019-03-11T11:02:43.788Z,4.12
2019-03-11T11:05:12.411Z,2.92
2019-03-11T11:07:41.051Z,2.77
2019-03-11T11:10:09.952Z,8.17
2019-03-11T11:12:38.620Z,3.15
2019-03-11T11:15:09.992Z,0.82
2019-03-11T11:17:38.656Z,2.22
2019-03-11T11:20:07.611Z,4.12
2019-03-11T11:22:36.252Z,5.65
2019-03-11T11:25:04.995Z,5.27
2019-03-11T11:27:33.678Z,0.80
2019-03-11T11:30:02.312Z,4.70
2019-03-11T11:32:31.299Z,1.65
2019-03-11T11:35:01.604Z,5.90
2019-03-11T11:37:30.799Z,3.90
2019-03-11T11:39:59.431Z,3.27
2019-03-11T11:42:28.043Z,3.45
2019-03-11T11:44:57.263Z,4.40
2019-03-11T11:47:25.871Z,3.10
2019-03-11T11:49:54.500Z,5.83
2019-03-11T11:52:23.125Z,9.30
2019-03-11T11:54:51.755Z,2.50
2019-03-11T11:57:20.375Z,1.53
2019-03-11T11:59:54.027Z,3.15
2019-03-11T12:02:19.339Z,3.40
2019-03-11T12:04:48.040Z,5.62
2019-03-11T12:07:16.827Z,7.40
2019-03-11T12:09:45.419Z,1.23
2019-03-11T12:12:14.433Z,4.85
2019-03-11T12:14:43.084Z,4.80
2019-03-11T12:17:11.683Z,4.05
2019-03-11T12:19:40.296Z,2.67
2019-03-11T12:22:08.920Z,4.72
2019-03-11T12:24:37.538Z,2.33
2019-03-11T12:27:06.249Z,2.73
2019-03-11T12:29:34.937Z,6.60
2019-03-11T12:32:03.564Z,3.60
2019-03-11T12:34:32.204Z,0.80
2019-03-11T12:37:00.833Z,2.45
2019-03-11T12:39:29.619Z,3.35
2019-03-11T12:41:58.254Z,1.80
2019-03-11T12:44:26.867Z,5.50
2019-03-11T12:46:55.479Z,0.62
2019-03-11T12:49:24.144Z,4.20
2019-03-11T12:51:52.775Z,2.17
2019-03-11T12:54:21.479Z,3.90
2019-03-11T12:56:50.191Z,4.10
2019-03-11T12:59:18.815Z,6.10
2019-03-11T13:01:47.472Z,2.92
2019-03-11T13:04:16.131Z,5.37
2019-03-11T13:06:44.751Z,1.72
2019-03-11T13:09:14.300Z,1.42
2019-03-11T13:11:42.934Z,3.07
2019-03-11T13:14:11.557Z,3.40
2019-03-11T13:16:40.775Z,2.45
2019-03-11T13:19:13.429Z,5.78
2019-03-11T13:21:40.527Z,4.33
2019-03-11T13:24:09.211Z,3.95
2019-03-11T13:26:37.840Z,6.43
2019-03-11T13:29:06.451Z,3.73
2019-03-11T13:31:35.143Z,7.40
2019-03-11T13:34:03.788Z,2.50
2019-03-11T13:36:32.395Z,6.27
2019-03-11T13:39:01.398Z,7.17
2019-03-11T13:41:31.219Z,0.90
2019-03-11T13:44:00.423Z,3.20
2019-03-11T13:46:29.026Z,1.92
2019-03-11T13:48:57.664Z,2.53
2019-03-11T13:51:26.363Z,1.70
2019-03-11T13:53:55.079Z,4.67
2019-03-11T13:56:23.691Z,3.72
2019-03-11T13:58:52.383Z,3.00
2019-03-11T14:01:21.353Z,3.95
2019-03-11T14:03:50.143Z,0.93
2019-03-11T14:06:18.748Z,3.43
2019-03-11T14:08:47.386Z,0.82
2019-03-11T14:11:15.999Z,4.83
2019-03-11T14:13:44.615Z,1.83
2019-03-11T14:16:13.307Z,0.33
2019-03-11T14:18:41.932Z,2.83
2019-03-11T14:21:10.559Z,4.55
2019-03-11T14:23:39.211Z,1.60
2019-03-11T14:26:07.891Z,2.87
2019-03-11T14:28:36.579Z,3.73
2019-03-11T14:31:05.235Z,9.93
2019-03-11T14:33:33.859Z,3.63
2019-03-11T14:36:02.475Z,2.10
2019-03-11T14:38:31.111Z,5.00
2019-03-11T14:40:59.752Z,2.80
2019-03-11T14:43:29.097Z,6.55
2019-03-11T14:45:57.701Z,0.43
2019-03-11T14:48:26.724Z,1.32
2019-03-11T14:50:55.365Z,3.30
2019-03-11T14:53:24.317Z,4.37
2019-03-11T14:55:52.936Z,3.27
2019-03-11T14:58:29.023Z,4.67
2019-03-11T15:00:51.892Z,4.77
2019-03-11T15:03:20.596Z,2.72
2019-03-11T15:05:49.567Z,6.80
2019-03-11T15:08:18.180Z,3.63
2019-03-11T15:10:47.289Z,4.60
2019-03-11T15:13:16.958Z,5.67
2019-03-11T15:15:45.602Z,1.83
2019-03-11T15:18:14.284Z,5.30
2019-03-11T15:20:42.903Z,3.10
2019-03-11T15:23:20.462Z,4.00
2019-03-11T15:25:41.844Z,6.00
2019-03-11T15:28:10.462Z,1.33
2019-03-11T15:30:39.181Z,4.37
2019-03-11T15:33:07.793Z,5.20
2019-03-11T15:35:36.399Z,4.93
2019-03-11T15:38:05.019Z,6.08
2019-03-11T15:40:33.655Z,4.78
2019-03-11T15:43:02.267Z,6.60
2019-03-11T15:45:38.637Z,6.92
2019-03-11T15:48:01.143Z,0.50
2019-03-11T15:50:29.863Z,3.43
2019-03-11T15:52:58.479Z,3.00
2019-03-11T15:55:27.095Z,3.60
2019-03-11T15:57:55.723Z,4.05
2019-03-11T16:00:25.346Z,7.70
2019-03-11T16:02:53.948Z,2.50
2019-03-11T16:05:22.560Z,5.10
2019-03-11T16:07:51.268Z,4.83
2019-03-11T16:10:20.186Z,3.98
2019-03-11T16:12:49.137Z,0.55
2019-03-11T16:15:18.194Z,2.60
2019-03-11T16:17:46.895Z,3.02
2019-03-11T16:20:16.130Z,4.08
2019-03-11T16:22:44.795Z,1.20
2019-03-11T16:25:13.403Z,3.10
2019-03-11T16:27:42.034Z,5.63
2019-03-11T16:30:12.032Z,6.40
2019-03-11T16:32:57.130Z,2.90
2019-03-11T16:35:10.991Z,4.00
2019-03-11T16:37:39.690Z,3.30
2019-03-11T16:40:08.744Z,2.83
2019-03-11T16:42:37.978Z,3.05
2019-03-11T16:45:07.080Z,1.43
2019-03-11T16:47:36.816Z,6.13
2019-03-11T16:50:05.583Z,2.83
2019-03-11T16:52:34.199Z,3.37
2019-03-11T16:55:02.836Z,5.43
2019-03-11T16:57:31.463Z,8.63
2019-03-11T17:00:00.066Z,2.90
2019-03-11T17:02:28.883Z,3.23
2019-03-11T17:04:57.756Z,1.80
2019-03-11T17:07:26.448Z,0.70
2019-03-11T17:09:55.109Z,2.83
2019-03-11T17:12:24.332Z,7.03
2019-03-11T17:14:52.947Z,6.30
2019-03-11T17:17:21.664Z,0.72
2019-03-11T17:19:50.364Z,4.50
2019-03-11T17:22:18.975Z,1.80
2019-03-11T17:24:47.727Z,5.87
2019-03-11T17:27:16.311Z,3.07
2019-03-11T17:29:44.960Z,3.20
2019-03-11T17:32:13.659Z,7.25
2019-03-11T17:34:42.327Z,2.60
2019-03-11T17:37:12.080Z,4.53
2019-03-11T17:39:40.845Z,0.63
2019-03-11T17:42:09.463Z,4.55
2019-03-11T17:44:38.143Z,8.10
2019-03-11T17:47:06.783Z,0.50
2019-03-11T17:49:35.567Z,3.12
2019-03-11T17:52:04.301Z,4.97
2019-03-11T17:54:32.915Z,4.70
2019-03-11T17:57:01.599Z,1.10
2019-03-11T17:59:30.735Z,5.42
2019-03-11T18:02:00.559Z,4.25
2019-03-11T18:04:29.251Z,0.33
2019-03-11T18:06:58.976Z,5.23
2019-03-11T18:09:27.663Z,6.60
2019-03-11T18:11:56.672Z,4.17
2019-03-11T18:14:25.322Z,5.47
2019-03-11T18:16:54.210Z,5.25
2019-03-11T18:19:22.835Z,3.25
2019-03-11T18:21:51.517Z,7.07
2019-03-11T18:24:20.207Z,4.70
2019-03-11T18:26:48.831Z,4.45
2019-03-11T18:29:17.486Z,3.77
2019-03-11T18:31:46.083Z,6.33
2019-03-11T18:34:14.739Z,2.97
2019-03-11T18:36:43.355Z,4.73
2019-03-11T18:39:12.012Z,3.02
2019-03-11T18:41:40.708Z,2.72
2019-03-11T18:44:09.373Z,5.95
2019-03-11T18:46:37.997Z,3.60
2019-03-11T18:49:06.639Z,3.57
2019-03-11T18:51:35.256Z,4.78
2019-03-11T18:54:03.887Z,8.43
2019-03-11T18:56:32.498Z,8.97
2019-03-11T18:59:01.127Z,3.47
2019-03-11T19:01:29.770Z,6.03
2019-03-11T19:03:58.523Z,2.73
2019-03-11T19:06:27.179Z,9.73
2019-03-11T19:08:55.795Z,1.65
2019-03-11T19:11:24.378Z,4.03
2019-03-11T19:13:53.019Z,7.40
2019-03-11T19:16:21.653Z,3.90
2019-03-11T19:18:50.259Z,2.12
2019-03-11T19:21:18.943Z,1.53
2019-03-11T19:23:47.609Z,4.12
2019-03-11T19:26:16.272Z,4.37
2019-03-11T19:28:44.869Z,5.53
2019-03-11T19:31:13.639Z,8.67
2019-03-11T19:33:42.309Z,6.43
2019-03-11T19:36:11.000Z,4.37
2019-03-11T19:38:39.636Z,7.40
2019-03-11T19:41:08.402Z,6.53
2019-03-11T19:43:37.040Z,8.53
2019-03-11T19:46:05.695Z,7.35
2019-03-11T19:48:34.910Z,6.27
2019-03-11T19:51:04.583Z,6.17
2019-03-11T19:53:34.514Z,7.17
2019-03-11T19:56:03.163Z,6.92
2019-03-11T19:58:31.845Z,4.50
2019-03-11T20:01:01.149Z,7.42
2019-03-11T20:03:30.763Z,5.50
2019-03-11T20:05:59.608Z,2.97
2019-03-11T20:08:28.224Z,4.37
2019-03-11T20:10:56.880Z,7.80
2019-03-11T20:13:25.589Z,5.92
2019-03-11T20:15:54.344Z,6.20
2019-03-11T20:18:22.984Z,5.57
2019-03-11T20:20:51.645Z,5.97
2019-03-11T20:23:20.357Z,5.78
2019-03-11T20:25:49.092Z,4.57
2019-03-11T20:28:17.853Z,4.42
2019-03-11T20:30:46.447Z,3.70
2019-03-11T20:33:15.062Z,9.53
2019-03-11T20:35:43.687Z,8.37
2019-03-11T20:38:12.411Z,7.33
2019-03-11T20:40:41.133Z,3.40
2019-03-11T20:43:09.773Z,3.53
2019-03-11T20:45:38.534Z,1.83
2019-03-11T20:48:07.145Z,4.73
2019-03-11T20:50:41.993Z,4.57
2019-03-11T20:53:06.169Z,4.03
2019-03-11T20:55:34.870Z,6.87
2019-03-11T20:58:03.548Z,5.57
2019-03-11T21:00:32.321Z,5.73
2019-03-11T21:03:00.938Z,5.40
2019-03-11T21:05:35.217Z,10.98
2019-03-11T21:08:02.601Z,3.77
2019-03-11T21:10:32.715Z,1.93
2019-03-11T21:13:01.358Z,3.37
2019-03-11T21:15:30.444Z,3.77
2019-03-11T21:17:59.055Z,6.77
2019-03-11T21:20:27.739Z,7.85
2019-03-11T21:25:22.005Z,5.87
2019-03-11T21:27:50.629Z,5.35
2019-03-11T21:30:19.753Z,9.08
2019-03-11T21:32:48.384Z,7.90
2019-03-11T21:35:18.294Z,8.80
2019-03-11T21:37:46.937Z,8.90
2019-03-11T21:40:16.158Z,5.90
2019-03-11T21:42:44.883Z,7.85
2019-03-11T21:45:13.812Z,5.73
2019-03-11T21:47:42.597Z,0.50
2019-03-11T21:50:14.036Z,4.60
2019-03-11T21:52:42.669Z,7.77
2019-03-11T21:55:11.288Z,0.80
2019-03-11T21:57:40.886Z,4.67
2019-03-11T22:00:10.786Z,3.00
2019-03-11T22:02:39.862Z,6.92
2019-03-11T22:05:08.487Z,6.10
2019-03-11T22:07:38.109Z,5.67
2019-03-11T22:10:06.911Z,9.40
2019-03-11T22:12:35.601Z,3.73
2019-03-11T22:15:04.247Z,0.77
2019-03-11T22:17:35.362Z,4.20
2019-03-11T22:20:03.571Z,5.55
2019-03-11T22:22:32.265Z,3.65
2019-03-11T22:25:01.369Z,7.47
2019-03-11T22:27:30.055Z,8.40
2019-03-11T22:29:59.475Z,2.27
2019-03-11T22:32:28.116Z,6.20
2019-03-11T22:34:56.727Z,6.60
2019-03-11T22:37:25.340Z,8.98
2019-03-11T22:39:53.995Z,3.70
2019-03-11T22:42:22.616Z,6.17
2019-03-11T22:44:51.228Z,7.53
2019-03-11T22:47:19.863Z,6.90
2019-03-11T22:49:48.473Z,8.68
2019-03-11T22:52:18.822Z,5.15
2019-03-11T22:54:47.579Z,3.37
2019-03-11T22:57:16.210Z,4.97
2019-03-11T22:59:44.823Z,9.23
2019-03-11T23:02:14.742Z,7.55
2019-03-11T23:04:43.351Z,8.28
2019-03-11T23:07:11.967Z,6.43
2019-03-11T23:09:40.599Z,4.75
2019-03-11T23:12:09.209Z,5.45
2019-03-11T23:14:37.823Z,6.10
2019-03-11T23:17:06.720Z,4.83
2019-03-11T23:19:35.334Z,6.07
2019-03-11T23:22:04.234Z,1.35
2019-03-11T23:24:32.877Z,1.13
2019-03-11T23:27:01.773Z,4.22
2019-03-11T23:29:30.535Z,5.60
2019-03-11T23:31:59.732Z,9.00
2019-03-11T23:34:28.340Z,7.83
2019-03-11T23:36:56.960Z,6.43
2019-03-11T23:39:25.610Z,0.62
2019-03-11T23:41:54.255Z,2.80
2019-03-11T23:44:22.880Z,3.70
2019-03-11T23:46:51.495Z,1.43
2019-03-11T23:49:20.134Z,10.67
2019-03-11T23:51:48.755Z,5.73
2019-03-11T23:54:17.387Z,6.45
2019-03-11T23:56:46.023Z,4.40
2019-03-11T23:59:14.627Z,6.40
